Detroit, Michigan
Current Conditions -  °F | °C
As of 9:00 PM on Tuesday 21 Oct 2014 (Local Time) from CYQG Reporting Station
Overcast Overcast  
Wind Chill: 38°   Ceiling: 2000
Heat Index: 45°   Visibility: 15mi
Dew Point: 37°   Wind: 14mph
Humidity: 76%   Direction: 360°N
Pressure: 30.16"   Gusts: 22mph
Location:  42.33°N, 83.05°W
Report Text: CYQG 220100Z 36012G19KT 15SM OVC020 07/03 A3016 RMK SC8 SLP216
Loading
Personal Weather Stations






























Interactive Weather Map
Tropical Storm Tracking
New forecast layout! Learn more

10-Day Weather Forecast

Advertisements
Track Severe Weather on mobile